sensor_id;sensor_type;location;lat;lon;timestamp;pressure;altitude;pressure_sealevel;temperature;humidity
60337;BME280;46978;50.288;28.624;2023-03-11T00:00:53;97163.48;;;5.24;86.99
60337;BME280;46978;50.288;28.624;2023-03-11T00:01:55;97162.61;;;5.25;87.01
60337;BME280;46978;50.288;28.624;2023-03-11T00:02:58;97160.08;;;5.24;87.09
60337;BME280;46978;50.288;28.624;2023-03-11T00:04:00;97162.66;;;5.24;87.08
60337;BME280;46978;50.288;28.624;2023-03-11T00:05:02;97155.92;;;5.19;87.03
60337;BME280;46978;50.288;28.624;2023-03-11T00:06:04;97155.92;;;5.19;87.03
60337;BME280;46978;50.288;28.624;2023-03-11T00:07:08;97157.66;;;5.19;87.14
60337;BME280;46978;50.288;28.624;2023-03-11T00:08:13;97150.78;;;5.19;87.15
60337;BME280;46978;50.288;28.624;2023-03-11T00:09:15;97158.53;;;5.18;87.16
60337;BME280;46978;50.288;28.624;2023-03-11T00:10:20;97155.92;;;5.19;87.16
60337;BME280;46978;50.288;28.624;2023-03-11T00:11:22;97150.83;;;5.18;87.13
60337;BME280;46978;50.288;28.624;2023-03-11T00:12:23;97153.45;;;5.16;87.22
60337;BME280;46978;50.288;28.624;2023-03-11T00:13:27;97152.56;;;5.17;87.24
60337;BME280;46978;50.288;28.624;2023-03-11T00:14:29;97150.05;;;5.16;87.25
60337;BME280;46978;50.288;28.624;2023-03-11T00:15:31;97146.71;;;5.12;87.24
60337;BME280;46978;50.288;28.624;2023-03-11T00:16:33;97145.05;;;5.11;87.40
60337;BME280;46978;50.288;28.624;2023-03-11T00:17:35;97141.67;;;5.09;87.54
60337;BME280;46978;50.288;28.624;2023-03-11T00:18:36;97143.41;;;5.09;87.64
60337;BME280;46978;50.288;28.624;2023-03-11T00:19:38;97140.89;;;5.07;87.72
60337;BME280;46978;50.288;28.624;2023-03-11T00:20:42;97144.28;;;5.08;87.70
60337;BME280;46978;50.288;28.624;2023-03-11T00:21:44;97143.45;;;5.07;87.82
60337;BME280;46978;50.288;28.624;2023-03-11T00:22:47;97138.31;;;5.07;87.76
60337;BME280;46978;50.288;28.624;2023-03-11T00:23:49;97134.87;;;5.08;87.66
60337;BME280;46978;50.288;28.624;2023-03-11T00:24:51;97136.52;;;5.09;87.50
60337;BME280;46978;50.288;28.624;2023-03-11T00:25:53;97139.05;;;5.11;87.41
60337;BME280;46978;50.288;28.624;2023-03-11T00:26:55;97138.95;;;5.14;87.23
60337;BME280;46978;50.288;28.624;2023-03-11T00:27:57;97138.95;;;5.14;87.23
60337;BME280;46978;50.288;28.624;2023-03-11T00:28:59;97139.81;;;5.14;86.98
60337;BME280;46978;50.288;28.624;2023-03-11T00:30:01;97137.29;;;5.13;86.84
60337;BME280;46978;50.288;28.624;2023-03-11T00:31:03;97134.72;;;5.13;86.76
60337;BME280;46978;50.288;28.624;2023-03-11T00:32:05;97139.91;;;5.11;86.75
60337;BME280;46978;50.288;28.624;2023-03-11T00:33:08;97133.08;;;5.10;86.83
60337;BME280;46978;50.288;28.624;2023-03-11T00:34:11;97128.86;;;5.08;86.86
60337;BME280;46978;50.288;28.624;2023-03-11T00:35:19;97129.83;;;5.05;86.92
60337;BME280;46978;50.288;28.624;2023-03-11T00:36:27;97132.44;;;5.03;86.90
60337;BME280;46978;50.288;28.624;2023-03-11T00:37:29;97129.11;;;5.00;86.94
60337;BME280;46978;50.288;28.624;2023-03-11T00:38:30;97124.97;;;4.96;87.06
60337;BME280;46978;50.288;28.624;2023-03-11T00:39:32;97120.71;;;4.95;87.12
60337;BME280;46978;50.288;28.624;2023-03-11T00:40:35;97118.19;;;4.93;87.09
60337;BME280;46978;50.288;28.624;2023-03-11T00:41:36;97116.55;;;4.91;87.09
60337;BME280;46978;50.288;28.624;2023-03-11T00:42:38;97115.81;;;4.87;87.10
60337;BME280;46978;50.288;28.624;2023-03-11T00:43:40;97108.98;;;4.86;87.14
60337;BME280;46978;50.288;28.624;2023-03-11T00:44:41;97110.72;;;4.85;87.14
60337;BME280;46978;50.288;28.624;2023-03-11T00:45:43;97109.08;;;4.83;87.07
60337;BME280;46978;50.288;28.624;2023-03-11T00:46:45;97109.12;;;4.81;87.00
60337;BME280;46978;50.288;28.624;2023-03-11T00:47:47;97112.61;;;4.80;87.00
60337;BME280;46978;50.288;28.624;2023-03-11T00:48:51;97110.13;;;4.77;87.07
60337;BME280;46978;50.288;28.624;2023-03-11T00:49:53;97110.18;;;4.76;87.06
60337;BME280;46978;50.288;28.624;2023-03-11T00:50:55;97104.19;;;4.75;87.04
60337;BME280;46978;50.288;28.624;2023-03-11T00:51:57;97103.40;;;4.73;86.98
60337;BME280;46978;50.288;28.624;2023-03-11T00:52:59;97100.05;;;4.71;86.96
60337;BME280;46978;50.288;28.624;2023-03-11T00:54:01;97102.66;;;4.70;86.96
60337;BME280;46978;50.288;28.624;2023-03-11T00:55:03;97097.58;;;4.68;86.96
60337;BME280;46978;50.288;28.624;2023-03-11T00:56:07;97102.81;;;4.65;87.05
60337;BME280;46978;50.288;28.624;2023-03-11T00:57:09;97095.98;;;4.64;87.01
60337;BME280;46978;50.288;28.624;2023-03-11T00:58:11;97099.42;;;4.63;86.94
60337;BME280;46978;50.288;28.624;2023-03-11T00:59:12;97094.28;;;4.63;86.87
60337;BME280;46978;50.288;28.624;2023-03-11T01:00:16;97095.20;;;4.62;86.72
60337;BME280;46978;50.288;28.624;2023-03-11T01:01:19;97093.50;;;4.61;86.69
60337;BME280;46978;50.288;28.624;2023-03-11T01:02:21;97089.29;;;4.58;86.64
60337;BME280;46978;50.288;28.624;2023-03-11T01:03:23;97088.37;;;4.61;86.48
60337;BME280;46978;50.288;28.624;2023-03-11T01:04:25;97086.67;;;4.60;86.42
60337;BME280;46978;50.288;28.624;2023-03-11T01:05:29;97087.58;;;4.59;86.25
60337;BME280;46978;50.288;28.624;2023-03-11T01:06:31;97085.11;;;4.56;86.14
60337;BME280;46978;50.288;28.624;2023-03-11T01:07:33;97085.11;;;4.56;86.14
60337;BME280;46978;50.288;28.624;2023-03-11T01:08:35;97085.20;;;4.53;86.08
60337;BME280;46978;50.288;28.624;2023-03-11T01:09:37;97083.47;;;4.53;86.09
60337;BME280;46978;50.288;28.624;2023-03-11T01:10:39;97081.82;;;4.51;86.04
60337;BME280;46978;50.288;28.624;2023-03-11T01:11:40;97084.34;;;4.52;85.77
60337;BME280;46978;50.288;28.624;2023-03-11T01:12:42;97077.50;;;4.53;85.55
60337;BME280;46978;50.288;28.624;2023-03-11T01:13:44;97076.59;;;4.54;85.17
60337;BME280;46978;50.288;28.624;2023-03-11T01:14:45;97076.50;;;4.57;85.09
60337;BME280;46978;50.288;28.624;2023-03-11T01:15:47;97068.79;;;4.57;84.92
60337;BME280;46978;50.288;28.624;2023-03-11T01:16:49;97067.96;;;4.56;84.58
60337;BME280;46978;50.288;28.624;2023-03-11T01:17:51;97067.13;;;4.56;84.51
60337;BME280;46978;50.288;28.624;2023-03-11T01:18:53;97067.18;;;4.54;84.57
60337;BME280;46978;50.288;28.624;2023-03-11T01:19:54;97062.05;;;4.54;84.19
60337;BME280;46978;50.288;28.624;2023-03-11T01:20:56;97063.75;;;4.54;84.19
60337;BME280;46978;50.288;28.624;2023-03-11T01:21:58;97056.91;;;4.54;83.86
60337;BME280;46978;50.288;28.624;2023-03-11T01:23:00;97061.08;;;4.57;83.24
60337;BME280;46978;50.288;28.624;2023-03-11T01:24:21;97068.74;;;4.58;83.19
60337;BME280;46978;50.288;28.624;2023-03-11T01:25:23;97085.94;;;4.56;82.93
60337;BME280;46978;50.288;28.624;2023-03-11T01:26:25;97061.75;;;4.63;82.64
60337;BME280;46978;50.288;28.624;2023-03-11T01:27:27;97057.50;;;4.62;82.61
60337;BME280;46978;50.288;28.624;2023-03-11T01:28:28;97059.23;;;4.62;82.63
60337;BME280;46978;50.288;28.624;2023-03-11T01:29:30;97062.73;;;4.59;82.64
60337;BME280;46978;50.288;28.624;2023-03-11T01:30:33;97055.95;;;4.57;82.68
60337;BME280;46978;50.288;28.624;2023-03-11T01:31:35;97055.95;;;4.57;82.32
60337;BME280;46978;50.288;28.624;2023-03-11T01:32:37;97056.77;;;4.59;82.09
60337;BME280;46978;50.288;28.624;2023-03-11T01:33:38;97060.16;;;4.59;82.09
60337;BME280;46978;50.288;28.624;2023-03-11T01:34:40;97052.50;;;4.58;82.14
60337;BME280;46978;50.288;28.624;2023-03-11T01:35:42;97055.12;;;4.56;82.18
60337;BME280;46978;50.288;28.624;2023-03-11T01:36:44;97050.91;;;4.54;82.08
60337;BME280;46978;50.288;28.624;2023-03-11T01:37:46;97052.64;;;4.53;82.04
60337;BME280;46978;50.288;28.624;2023-03-11T01:38:47;97054.38;;;4.53;82.04
60337;BME280;46978;50.288;28.624;2023-03-11T01:39:49;97044.16;;;4.51;81.87
60337;BME280;46978;50.288;28.624;2023-03-11T01:40:51;97053.57;;;4.51;81.79
60337;BME280;46978;50.288;28.624;2023-03-11T01:41:53;97052.70;;;4.52;81.87
60337;BME280;46978;50.288;28.624;2023-03-11T01:42:57;97058.75;;;4.49;81.83
60337;BME280;46978;50.288;28.624;2023-03-11T01:43:58;97056.23;;;4.47;81.87
60337;BME280;46978;50.288;28.624;2023-03-11T01:45:00;97047.75;;;4.45;81.92
60337;BME280;46978;50.288;28.624;2023-03-11T01:46:14;97049.48;;;4.45;81.93
60337;BME280;46978;50.288;28.624;2023-03-11T01:47:38;97065.81;;;4.42;81.74
60337;BME280;46978;50.288;28.624;2023-03-11T01:48:37;97041.92;;;4.40;81.84
60337;BME280;46978;50.288;28.624;2023-03-11T01:49:39;97036.84;;;4.39;81.68
60337;BME280;46978;50.288;28.624;2023-03-11T01:50:44;97031.75;;;4.37;81.79
60337;BME280;46978;50.288;28.624;2023-03-11T01:51:48;97025.70;;;4.38;81.25
60337;BME280;46978;50.288;28.624;2023-03-11T01:52:51;97027.39;;;4.39;81.40
60337;BME280;46978;50.288;28.624;2023-03-11T01:53:55;97030.84;;;4.38;81.48
60337;BME280;46978;50.288;28.624;2023-03-11T01:54:57;97024.78;;;4.41;81.02
60337;BME280;46978;50.288;28.624;2023-03-11T01:56:01;97022.99;;;4.43;81.07
60337;BME280;46978;50.288;28.624;2023-03-11T01:57:06;97017.91;;;4.41;80.80
60337;BME280;46978;50.288;28.624;2023-03-11T01:58:13;97013.68;;;4.40;80.89
60337;BME280;46978;50.288;28.624;2023-03-11T01:59:17;97016.20;;;4.42;80.62
60337;BME280;46978;50.288;28.624;2023-03-11T02:00:20;97011.99;;;4.39;80.73
60337;BME280;46978;50.288;28.624;2023-03-11T02:01:23;97012.81;;;4.40;80.72
60337;BME280;46978;50.288;28.624;2023-03-11T02:02:35;97011.94;;;4.41;80.33
60337;BME280;46978;50.288;28.624;2023-03-11T02:03:39;97005.06;;;4.41;80.33
60337;BME280;46978;50.288;28.624;2023-03-11T02:04:41;97002.55;;;4.40;80.32
60337;BME280;46978;50.288;28.624;2023-03-11T02:05:43;97009.42;;;4.39;80.26
60337;BME280;46978;50.288;28.624;2023-03-11T02:06:46;97006.86;;;4.39;80.24
60337;BME280;46978;50.288;28.624;2023-03-11T02:07:49;97003.41;;;4.40;79.75
60337;BME280;46978;50.288;28.624;2023-03-11T02:08:52;97003.41;;;4.40;79.84
60337;BME280;46978;50.288;28.624;2023-03-11T02:09:54;96996.44;;;4.44;79.14
60337;BME280;46978;50.288;28.624;2023-03-11T02:10:56;96993.05;;;4.43;79.29
60337;BME280;46978;50.288;28.624;2023-03-11T02:11:58;96991.30;;;4.44;79.29
60337;BME280;46978;50.288;28.624;2023-03-11T02:13:02;96987.91;;;4.43;79.34
60337;BME280;46978;50.288;28.624;2023-03-11T02:14:05;96989.66;;;4.41;79.27
60337;BME280;46978;50.288;28.624;2023-03-11T02:15:09;96982.87;;;4.40;79.10
60337;BME280;46978;50.288;28.624;2023-03-11T02:16:12;96981.08;;;4.42;78.77
60337;BME280;46978;50.288;28.624;2023-03-11T02:17:14;96983.55;;;4.45;78.32
60337;BME280;46978;50.288;28.624;2023-03-11T02:18:17;96983.55;;;4.45;78.32
60337;BME280;46978;50.288;28.624;2023-03-11T02:21:46;96980.01;;;4.49;77.69
60337;BME280;46978;50.288;28.624;2023-03-11T02:22:48;96985.05;;;4.53;77.73
60337;BME280;46978;50.288;28.624;2023-03-11T02:27:52;96975.60;;;4.53;77.12
60337;BME280;46978;50.288;28.624;2023-03-11T02:28:55;96975.65;;;4.52;77.26
60337;BME280;46978;50.288;28.624;2023-03-11T02:29:58;96976.58;;;4.49;77.17
60337;BME280;46978;50.288;28.624;2023-03-11T02:31:11;96975.80;;;4.47;77.22
60337;BME280;46978;50.288;28.624;2023-03-11T02:32:13;96977.53;;;4.46;77.25
60337;BME280;46978;50.288;28.624;2023-03-11T02:33:15;96970.81;;;4.42;77.33
60337;BME280;46978;50.288;28.624;2023-03-11T02:34:29;96964.89;;;4.40;77.31
60337;BME280;46978;50.288;28.624;2023-03-11T02:35:27;96962.42;;;4.37;77.40
60337;BME280;46978;50.288;28.624;2023-03-11T02:36:31;96966.70;;;4.37;77.41
60337;BME280;46978;50.288;28.624;2023-03-11T02:37:33;96971.00;;;4.36;77.19
60337;BME280;46978;50.288;28.624;2023-03-11T02:38:35;96968.48;;;4.35;77.49
60337;BME280;46978;50.288;28.624;2023-03-11T02:39:40;96961.66;;;4.34;77.12
60337;BME280;46978;50.288;28.624;2023-03-11T02:41:57;96964.18;;;4.35;77.04
60337;BME280;46978;50.288;28.624;2023-03-11T02:43:02;96957.44;;;4.33;77.03
60337;BME280;46978;50.288;28.624;2023-03-11T02:44:07;96968.48;;;4.35;76.96
60337;BME280;46978;50.288;28.624;2023-03-11T02:45:12;96955.65;;;4.35;76.63
60337;BME280;46978;50.288;28.624;2023-03-11T02:46:15;96957.34;;;4.36;76.60
60337;BME280;46978;50.288;28.624;2023-03-11T02:47:18;96953.03;;;4.36;76.52
60337;BME280;46978;50.288;28.624;2023-03-11T02:48:20;96953.91;;;4.35;76.71
60337;BME280;46978;50.288;28.624;2023-03-11T02:49:23;96964.18;;;4.35;76.57
60337;BME280;46978;50.288;28.624;2023-03-11T02:50:27;96959.05;;;4.35;76.43
60337;BME280;46978;50.288;28.624;2023-03-11T02:51:29;96956.48;;;4.35;76.49
60337;BME280;46978;50.288;28.624;2023-03-11T02:52:33;96955.70;;;4.33;76.63
60337;BME280;46978;50.288;28.624;2023-03-11T02:53:38;96952.30;;;4.33;76.45
60337;BME280;46978;50.288;28.624;2023-03-11T02:54:40;96957.44;;;4.33;76.63
60337;BME280;46978;50.288;28.624;2023-03-11T02:55:42;96954.01;;;4.32;76.43
60337;BME280;46978;50.288;28.624;2023-03-11T02:56:44;96949.78;;;4.31;76.56
60337;BME280;46978;50.288;28.624;2023-03-11T02:57:46;96950.61;;;4.31;76.28
60337;BME280;46978;50.288;28.624;2023-03-11T02:58:48;96954.88;;;4.33;76.19
60337;BME280;46978;50.288;28.624;2023-03-11T02:59:50;96948.88;;;4.32;76.31
60337;BME280;46978;50.288;28.624;2023-03-11T03:00:52;96949.78;;;4.31;76.18
60337;BME280;46978;50.288;28.624;2023-03-11T03:01:54;96948.97;;;4.29;76.12
60337;BME280;46978;50.288;28.624;2023-03-11T03:02:55;96945.53;;;4.30;75.98
60337;BME280;46978;50.288;28.624;2023-03-11T03:03:57;96943.84;;;4.29;75.99
60337;BME280;46978;50.288;28.624;2023-03-11T03:04:59;96944.65;;;4.31;75.78
60337;BME280;46978;50.288;28.624;2023-03-11T03:06:01;96939.56;;;4.29;75.75
60337;BME280;46978;50.288;28.624;2023-03-11T03:07:02;96942.96;;;4.30;75.41
60337;BME280;46978;50.288;28.624;2023-03-11T03:08:04;96944.65;;;4.31;75.29
60337;BME280;46978;50.288;28.624;2023-03-11T03:09:06;96948.88;;;4.32;75.12
60337;BME280;46978;50.288;28.624;2023-03-11T03:10:10;96943.64;;;4.35;75.06
60337;BME280;46978;50.288;28.624;2023-03-11T03:11:12;96937.68;;;4.35;75.19
60337;BME280;46978;50.288;28.624;2023-03-11T03:12:13;96936.84;;;4.34;75.12
60337;BME280;46978;50.288;28.624;2023-03-11T03:13:15;96935.20;;;4.31;75.10
60337;BME280;46978;50.288;28.624;2023-03-11T03:14:17;96931.81;;;4.31;75.18
60337;BME280;46978;50.288;28.624;2023-03-11T03:15:18;96933.57;;;4.29;75.28
60337;BME280;46978;50.288;28.624;2023-03-11T03:16:20;96927.66;;;4.27;75.27
60337;BME280;46978;50.288;28.624;2023-03-11T03:17:22;96931.96;;;4.26;75.08
60337;BME280;46978;50.288;28.624;2023-03-11T03:18:24;96931.96;;;4.26;75.10
60337;BME280;46978;50.288;28.624;2023-03-11T03:19:26;96933.67;;;4.26;75.14
60337;BME280;46978;50.288;28.624;2023-03-11T03:20:28;96929.44;;;4.25;75.23
60337;BME280;46978;50.288;28.624;2023-03-11T03:21:29;96934.63;;;4.23;75.28
60337;BME280;46978;50.288;28.624;2023-03-11T03:22:31;96930.37;;;4.22;75.30
60337;BME280;46978;50.288;28.624;2023-03-11T03:23:33;96924.36;;;4.23;75.04
60337;BME280;46978;50.288;28.624;2023-03-11T03:24:35;96926.06;;;4.23;75.05
60337;BME280;46978;50.288;28.624;2023-03-11T03:25:36;96918.31;;;4.24;75.05
60337;BME280;46978;50.288;28.624;2023-03-11T03:26:38;96921.79;;;4.23;75.09
60337;BME280;46978;50.288;28.624;2023-03-11T03:27:40;96913.18;;;4.24;74.91
60337;BME280;46978;50.288;28.624;2023-03-11T03:28:41;96919.17;;;4.25;74.73
60337;BME280;46978;50.288;28.624;2023-03-11T03:29:43;96916.56;;;4.26;74.67
60337;BME280;46978;50.288;28.624;2023-03-11T03:30:45;96913.89;;;4.29;74.66
60337;BME280;46978;50.288;28.624;2023-03-11T03:31:47;96918.16;;;4.29;74.57
60337;BME280;46978;50.288;28.624;2023-03-11T03:32:48;96908.76;;;4.29;74.68
60337;BME280;46978;50.288;28.624;2023-03-11T03:33:50;96914.72;;;4.30;74.70
60337;BME280;46978;50.288;28.624;2023-03-11T03:34:52;96910.47;;;4.29;74.81
60337;BME280;46978;50.288;28.624;2023-03-11T03:35:54;96908.81;;;4.28;74.99
60337;BME280;46978;50.288;28.624;2023-03-11T03:36:55;96915.70;;;4.26;75.01
60337;BME280;46978;50.288;28.624;2023-03-11T03:37:57;96902.96;;;4.23;75.19
60337;BME280;46978;50.288;28.624;2023-03-11T03:38:59;96909.88;;;4.21;75.33
60337;BME280;46978;50.288;28.624;2023-03-11T03:40:03;96915.02;;;4.21;75.38
60337;BME280;46978;50.288;28.624;2023-03-11T03:41:05;96912.55;;;4.18;75.49
60337;BME280;46978;50.288;28.624;2023-03-11T03:42:08;96910.91;;;4.15;75.67
60337;BME280;46978;50.288;28.624;2023-03-11T03:43:12;96913.52;;;4.13;75.87
60337;BME280;46978;50.288;28.624;2023-03-11T03:44:15;96904.95;;;4.15;75.70
60337;BME280;46978;50.288;28.624;2023-03-11T03:45:17;96906.64;;;4.16;75.68
60337;BME280;46978;50.288;28.624;2023-03-11T03:46:19;96909.98;;;4.18;75.59
60337;BME280;46978;50.288;28.624;2023-03-11T03:47:21;96900.55;;;4.18;75.69
60337;BME280;46978;50.288;28.624;2023-03-11T03:48:22;96898.84;;;4.19;75.68
60337;BME280;46978;50.288;28.624;2023-03-11T03:49:24;96894.63;;;4.16;75.71
60337;BME280;46978;50.288;28.624;2023-03-11T03:50:26;96901.55;;;4.14;76.04
60337;BME280;46978;50.288;28.624;2023-03-11T03:51:28;96899.81;;;4.15;76.07
60337;BME280;46978;50.288;28.624;2023-03-11T03:52:31;96891.34;;;4.12;76.13
60337;BME280;46978;50.288;28.624;2023-03-11T03:53:34;96888.82;;;4.11;76.22
60337;BME280;46978;50.288;28.624;2023-03-11T03:54:36;96894.00;;;4.09;76.33
60337;BME280;46978;50.288;28.624;2023-03-11T03:55:38;96882.83;;;4.10;76.31
60337;BME280;46978;50.288;28.624;2023-03-11T03:56:40;96893.91;;;4.12;76.37
60337;BME280;46978;50.288;28.624;2023-03-11T03:57:41;96888.77;;;4.12;76.44
60337;BME280;46978;50.288;28.624;2023-03-11T03:58:43;96885.34;;;4.12;76.29
60337;BME280;46978;50.288;28.624;2023-03-11T03:59:45;96884.52;;;4.11;76.45
60337;BME280;46978;50.288;28.624;2023-03-11T04:00:47;96880.16;;;4.13;76.28
60337;BME280;46978;50.288;28.624;2023-03-11T04:01:48;96881.90;;;4.13;76.40
60337;BME280;46978;50.288;28.624;2023-03-11T04:02:50;96878.50;;;4.12;76.54
60337;BME280;46978;50.288;28.624;2023-03-11T04:03:52;96875.13;;;4.10;76.66
60337;BME280;46978;50.288;28.624;2023-03-11T04:04:53;96880.27;;;4.10;76.77
60337;BME280;46978;50.288;28.624;2023-03-11T04:07:17;96872.61;;;4.09;76.91
60337;BME280;46978;50.288;28.624;2023-03-11T04:08:19;96872.66;;;4.07;76.93
60337;BME280;46978;50.288;28.624;2023-03-11T04:09:21;96861.56;;;4.07;77.15
60337;BME280;46978;50.288;28.624;2023-03-11T04:10:23;96868.44;;;4.06;77.17
60337;BME280;46978;50.288;28.624;2023-03-11T04:11:24;96862.45;;;4.06;77.29
60337;BME280;46978;50.288;28.624;2023-03-11T04:12:27;96865.06;;;4.04;77.28
60337;BME280;46978;50.288;28.624;2023-03-11T04:13:29;96856.53;;;4.04;77.46
60337;BME280;46978;50.288;28.624;2023-03-11T04:14:31;96862.49;;;4.04;77.48
60337;BME280;46978;50.288;28.624;2023-03-11T04:15:33;96863.35;;;4.05;77.62
60337;BME280;46978;50.288;28.624;2023-03-11T04:16:35;96862.49;;;4.04;77.65
60337;BME280;46978;50.288;28.624;2023-03-11T04:17:37;96862.49;;;4.04;77.72
60337;BME280;46978;50.288;28.624;2023-03-11T04:18:39;96860.79;;;4.05;77.65
60337;BME280;46978;50.288;28.624;2023-03-11T04:19:40;96852.23;;;4.04;77.84
60337;BME280;46978;50.288;28.624;2023-03-11T04:20:42;96859.05;;;4.05;78.00
60337;BME280;46978;50.288;28.624;2023-03-11T04:21:46;96858.22;;;4.05;78.01
60337;BME280;46978;50.288;28.624;2023-03-11T04:22:47;96855.66;;;4.05;77.92
60337;BME280;46978;50.288;28.624;2023-03-11T04:23:49;96857.36;;;4.04;77.93
60337;BME280;46978;50.288;28.624;2023-03-11T04:24:52;96857.36;;;4.04;78.02
60337;BME280;46978;50.288;28.624;2023-03-11T04:25:53;96846.27;;;4.04;78.10
60337;BME280;46978;50.288;28.624;2023-03-11T04:26:55;96845.44;;;4.03;78.22
60337;BME280;46978;50.288;28.624;2023-03-11T04:28:03;96842.06;;;4.01;78.38
60337;BME280;46978;50.288;28.624;2023-03-11T04:29:04;96844.63;;;4.01;78.50
60337;BME280;46978;50.288;28.624;2023-03-11T04:30:08;96842.06;;;4.01;78.58
60337;BME280;46978;50.288;28.624;2023-03-11T04:31:10;96842.11;;;4.00;78.67
60337;BME280;46978;50.288;28.624;2023-03-11T04:32:11;96835.33;;;3.99;78.86
60337;BME280;46978;50.288;28.624;2023-03-11T04:33:13;96832.81;;;3.97;78.80
60337;BME280;46978;50.288;28.624;2023-03-11T04:34:15;96835.38;;;3.97;78.87
60337;BME280;46978;50.288;28.624;2023-03-11T04:35:16;96830.24;;;3.97;78.93
60337;BME280;46978;50.288;28.624;2023-03-11T04:36:18;96830.24;;;3.97;79.12
60337;BME280;46978;50.288;28.624;2023-03-11T04:37:20;96830.24;;;3.97;79.12
60337;BME280;46978;50.288;28.624;2023-03-11T04:38:22;96826.91;;;3.95;78.83
60337;BME280;46978;50.288;28.624;2023-03-11T04:39:24;96821.64;;;3.98;78.98
60337;BME280;46978;50.288;28.624;2023-03-11T04:40:26;96825.89;;;3.99;78.87
60337;BME280;46978;50.288;28.624;2023-03-11T04:41:27;96825.84;;;4.01;78.81
60337;BME280;46978;50.288;28.624;2023-03-11T04:42:29;96822.40;;;4.02;78.83
60337;BME280;46978;50.288;28.624;2023-03-11T04:43:32;96821.53;;;4.01;78.94
60337;BME280;46978;50.288;28.624;2023-03-11T04:44:34;96829.19;;;4.03;79.07
60337;BME280;46978;50.288;28.624;2023-03-11T04:45:39;96819.83;;;4.02;79.06
60337;BME280;46978;50.288;28.624;2023-03-11T04:46:41;96826.56;;;4.04;79.04
60337;BME280;46978;50.288;28.624;2023-03-11T04:47:48;96823.13;;;4.05;79.09
60337;BME280;46978;50.288;28.624;2023-03-11T04:48:50;96826.42;;;4.09;79.16
60337;BME280;46978;50.288;28.624;2023-03-11T04:49:52;96821.23;;;4.10;78.96
60337;BME280;46978;50.288;28.624;2023-03-11T04:50:54;96816.91;;;4.12;78.93
60337;BME280;46978;50.288;28.624;2023-03-11T04:51:56;96812.55;;;4.15;78.79
60337;BME280;46978;50.288;28.624;2023-03-11T04:52:57;96815.89;;;4.17;78.71
60337;BME280;46978;50.288;28.624;2023-03-11T04:53:59;96808.14;;;4.18;78.64
60337;BME280;46978;50.288;28.624;2023-03-11T04:55:01;96808.05;;;4.21;78.42
60337;BME280;46978;50.288;28.624;2023-03-11T04:56:03;96806.28;;;4.23;78.42
60337;BME280;46978;50.288;28.624;2023-03-11T04:57:05;96809.63;;;4.25;78.39
60337;BME280;46978;50.288;28.624;2023-03-11T04:58:06;96800.19;;;4.26;78.30
60337;BME280;46978;50.288;28.624;2023-03-11T04:59:08;96798.48;;;4.26;78.40
60337;BME280;46978;50.288;28.624;2023-03-11T05:00:11;96801.88;;;4.27;78.47
60337;BME280;46978;50.288;28.624;2023-03-11T05:01:13;96796.79;;;4.25;78.03
60337;BME280;46978;50.288;28.624;2023-03-11T05:02:15;96799.25;;;4.28;78.11
60337;BME280;46978;50.288;28.624;2023-03-11T05:03:16;96800.94;;;4.29;78.20
60337;BME280;46978;50.288;28.624;2023-03-11T05:04:18;96805.22;;;4.29;78.33
60337;BME280;46978;50.288;28.624;2023-03-11T05:05:20;96798.42;;;4.28;78.27
60337;BME280;46978;50.288;28.624;2023-03-11T05:06:21;96797.52;;;4.29;78.36
60337;BME280;46978;50.288;28.624;2023-03-11T05:07:23;96790.73;;;4.28;78.11
60337;BME280;46978;50.288;28.624;2023-03-11T05:08:25;96789.76;;;4.30;78.08
60337;BME280;46978;50.288;28.624;2023-03-11T05:09:27;96788.88;;;4.31;78.54
60337;BME280;46978;50.288;28.624;2023-03-11T05:10:29;96787.14;;;4.32;78.38
60337;BME280;46978;50.288;28.624;2023-03-11T05:11:31;96787.09;;;4.34;78.42
60337;BME280;46978;50.288;28.624;2023-03-11T05:12:32;96757.09;;;4.36;78.38
60337;BME280;46978;50.288;28.624;2023-03-11T05:13:34;96780.14;;;4.37;78.63
60337;BME280;46978;50.288;28.624;2023-03-11T05:14:36;96780.14;;;4.37;78.72
60337;BME280;46978;50.288;28.624;2023-03-11T05:15:38;96780.09;;;4.39;78.75
60337;BME280;46978;50.288;28.624;2023-03-11T05:16:39;96774.89;;;4.40;78.93
60337;BME280;46978;50.288;28.624;2023-03-11T05:17:41;96773.10;;;4.42;78.97
60337;BME280;46978;50.288;28.624;2023-03-11T05:18:43;96771.30;;;4.44;79.05
60337;BME280;46978;50.288;28.624;2023-03-11T05:19:45;96769.55;;;4.46;79.03
60337;BME280;46978;50.288;28.624;2023-03-11T05:20:47;96774.63;;;4.48;79.23
60337;BME280;46978;50.288;28.624;2023-03-11T05:21:48;96771.09;;;4.51;79.31
60337;BME280;46978;50.288;28.624;2023-03-11T05:22:50;96769.38;;;4.51;79.30
60337;BME280;46978;50.288;28.624;2023-03-11T05:23:52;96764.14;;;4.54;79.31
60337;BME280;46978;50.288;28.624;2023-03-11T05:24:54;96773.44;;;4.57;79.22
60337;BME280;46978;50.288;28.624;2023-03-11T05:25:55;96764.85;;;4.58;79.17
60337;BME280;46978;50.288;28.624;2023-03-11T05:26:58;96764.80;;;4.59;79.17
60337;BME280;46978;50.288;28.624;2023-03-11T05:27:59;96755.35;;;4.60;79.01
60337;BME280;46978;50.288;28.624;2023-03-11T05:29:01;96757.81;;;4.63;79.21
60337;BME280;46978;50.288;28.624;2023-03-11T05:30:04;96752.67;;;4.63;79.04
60337;BME280;46978;50.288;28.624;2023-03-11T05:31:09;96756.05;;;4.65;79.11
60337;BME280;46978;50.288;28.624;2023-03-11T05:32:12;96750.84;;;4.66;79.03
60337;BME280;46978;50.288;28.624;2023-03-11T05:33:14;96750.80;;;4.68;78.59
60337;BME280;46978;50.288;28.624;2023-03-11T05:34:16;96767.03;;;4.69;78.64
60337;BME280;46978;50.288;28.624;2023-03-11T05:35:18;96750.73;;;4.70;78.51
60337;BME280;46978;50.288;28.624;2023-03-11T05:36:20;96757.53;;;4.71;78.61
60337;BME280;46978;50.288;28.624;2023-03-11T05:37:21;96759.27;;;4.70;78.72
60337;BME280;46978;50.288;28.624;2023-03-11T05:38:23;96756.64;;;4.72;78.92
60337;BME280;46978;50.288;28.624;2023-03-11T05:39:25;96758.39;;;4.71;78.98
60337;BME280;46978;50.288;28.624;2023-03-11T05:40:26;96758.27;;;4.74;78.90